Time;durP1;ratioP1;P1;durP2;ratioP2;P2;SDS_P1;SDS_P2;PMS_P1;PMS_P2;Temp;Humidity;BMP_temperature;BMP_pressure;BME280_temperature;BME280_humidity;BME280_pressure;Samples;Min_cycle;Max_cycle;Signal;HPM_P1;HPM_P2
2023/01/26 00:00:53;;;;;;;70.75;19.52;;;-2.50;99.90;;;;;;5074659;28;20031;-84
2023/01/26 00:03:19;;;;;;;69.97;21.35;;;-2.40;99.90;;;;;;5074880;28;20028;-84
2023/01/26 00:05:45;;;;;;;65.07;21.67;;;-2.40;99.90;;;;;;5091558;28;20065;-84
2023/01/26 00:08:11;;;;;;;67.88;22.75;;;-2.40;99.90;;;;;;5074979;28;20028;-84
2023/01/26 00:10:41;;;;;;;78.03;23.17;;;-2.40;99.90;;;;;;5074904;28;20502;-84
2023/01/26 00:13:09;;;;;;;73.82;22.77;;;-2.40;99.90;;;;;;5074789;28;20028;-84
2023/01/26 00:15:35;;;;;;;75.28;21.88;;;-2.40;99.90;;;;;;5091846;28;20097;-84
2023/01/26 00:18:02;;;;;;;68.55;20.73;;;-2.40;99.90;;;;;;5074737;28;20106;-84
2023/01/26 00:20:29;;;;;;;72.30;22.05;;;-2.40;99.90;;;;;;5089463;28;20040;-84
2023/01/26 00:22:55;;;;;;;86.18;23.00;;;-2.40;99.90;;;;;;5073626;28;20030;-84
2023/01/26 00:25:21;;;;;;;77.25;21.92;;;-2.40;99.90;;;;;;5091504;28;20024;-84
2023/01/26 00:27:47;;;;;;;81.97;23.67;;;-2.40;99.90;;;;;;5091459;28;20032;-84
2023/01/26 00:30:13;;;;;;;89.13;23.45;;;-2.40;99.90;;;;;;5091374;28;20020;-84
2023/01/26 00:32:38;;;;;;;74.00;21.42;;;-2.40;99.90;;;;;;5074498;28;20360;-84
2023/01/26 00:35:05;;;;;;;77.78;24.35;;;-2.50;99.90;;;;;;5091190;28;20012;-84
2023/01/26 00:37:31;;;;;;;73.88;21.83;;;-2.50;99.90;;;;;;5084198;28;20044;-84
2023/01/26 00:39:57;;;;;;;62.45;20.55;;;-2.50;99.90;;;;;;5077380;28;20020;-84
2023/01/26 00:42:23;;;;;;;66.32;20.45;;;-2.40;99.90;;;;;;5091498;28;20065;-84
2023/01/26 00:44:50;;;;;;;69.63;20.75;;;-2.40;99.90;;;;;;5074575;28;20037;-84
2023/01/26 00:47:21;;;;;;;72.53;20.02;;;-2.40;99.90;;;;;;5091082;28;20165;-85
2023/01/26 00:49:48;;;;;;;73.72;22.05;;;-2.40;99.90;;;;;;5067595;28;20024;-84
2023/01/26 00:52:14;;;;;;;73.25;22.35;;;-2.40;99.90;;;;;;5074356;28;20053;-84
2023/01/26 00:54:40;;;;;;;74.28;22.67;;;-2.40;99.90;;;;;;5090499;28;20540;-84
2023/01/26 00:57:05;;;;;;;73.25;21.30;;;-2.40;99.90;;;;;;5074152;28;20036;-84
2023/01/26 00:59:31;;;;;;;64.43;20.25;;;-2.40;99.90;;;;;;5074056;28;20081;-84
2023/01/26 01:01:58;;;;;;;59.13;18.15;;;-2.50;99.90;;;;;;5074006;28;20035;-85
2023/01/26 01:04:24;;;;;;;53.88;17.55;;;-2.50;99.90;;;;;;5073265;28;20114;-84
2023/01/26 01:06:50;;;;;;;65.10;19.33;;;-2.50;99.90;;;;;;5090684;28;20443;-84
2023/01/26 01:09:16;;;;;;;65.22;20.38;;;-2.50;99.90;;;;;;5074078;28;20035;-84
2023/01/26 01:11:44;;;;;;;61.67;19.73;;;-2.50;99.90;;;;;;5073927;28;20498;-84
2023/01/26 01:14:11;;;;;;;64.18;18.55;;;-2.40;99.90;;;;;;5073522;28;20111;-85
2023/01/26 01:16:38;;;;;;;70.93;20.75;;;-2.40;99.90;;;;;;5073798;28;20040;-84
2023/01/26 01:19:03;;;;;;;65.60;20.70;;;-2.50;99.90;;;;;;5073685;28;20058;-84
2023/01/26 01:21:31;;;;;;;73.38;22.20;;;-2.40;99.90;;;;;;5073596;28;20032;-84
2023/01/26 01:23:57;;;;;;;75.97;21.90;;;-2.40;99.90;;;;;;5074183;28;20024;-84
2023/01/26 01:26:22;;;;;;;71.30;22.10;;;-2.40;99.90;;;;;;5090762;28;20054;-84
2023/01/26 01:28:48;;;;;;;70.03;23.00;;;-2.40;99.90;;;;;;5073740;28;20123;-84
2023/01/26 01:31:15;;;;;;;72.88;19.88;;;-2.40;99.90;;;;;;5090512;28;20028;-84
2023/01/26 01:33:41;;;;;;;72.70;21.92;;;-2.40;99.90;;;;;;5072896;28;20059;-85
2023/01/26 01:36:13;;;;;;;64.75;20.35;;;-2.40;99.90;;;;;;5075298;28;20032;-85
2023/01/26 01:38:39;;;;;;;73.13;21.02;;;-2.40;99.90;;;;;;5077586;28;20040;-84
2023/01/26 01:41:06;;;;;;;73.65;20.75;;;-2.40;99.90;;;;;;5093879;28;20085;-84
2023/01/26 01:43:32;;;;;;;62.78;20.23;;;-2.40;99.90;;;;;;5093970;28;20028;-84
2023/01/26 01:46:01;;;;;;;55.30;18.50;;;-2.30;99.90;;;;;;5077165;28;20066;-83
2023/01/26 01:48:30;;;;;;;72.22;21.15;;;-2.30;99.90;;;;;;5093951;28;20035;-84
2023/01/26 01:51:01;;;;;;;70.03;22.00;;;-2.40;99.90;;;;;;5076757;28;20021;-84
2023/01/26 01:53:32;;;;;;;59.78;21.08;;;-2.30;99.90;;;;;;5093629;28;20032;-84
2023/01/26 01:56:03;;;;;;;68.57;21.80;;;-2.30;99.90;;;;;;5076165;28;20040;-84
2023/01/26 01:58:33;;;;;;;70.88;19.52;;;-2.30;99.90;;;;;;5076747;28;20376;-84
2023/01/26 02:00:59;;;;;;;62.20;19.50;;;-2.30;99.90;;;;;;5076913;28;20107;-84
2023/01/26 02:03:27;;;;;;;58.85;21.65;;;-2.30;99.90;;;;;;5076813;28;20123;-84
2023/01/26 02:06:11;;;;;;;74.10;21.50;;;-2.30;99.90;;;;;;5077095;28;20098;-84
2023/01/26 02:08:45;;;;;;;66.50;19.90;;;-2.40;99.90;;;;;;5077052;28;20024;-84
2023/01/26 02:11:19;;;;;;;64.40;19.55;;;-2.40;99.90;;;;;;5077346;28;20062;-84
2023/01/26 02:13:47;;;;;;;62.78;18.70;;;-2.40;99.90;;;;;;5077076;28;20020;-84
2023/01/26 02:16:14;;;;;;;62.00;17.10;;;-2.40;99.90;;;;;;5094167;28;20494;-84
2023/01/26 02:18:40;;;;;;;61.20;19.08;;;-2.40;99.90;;;;;;5077223;28;20032;-84
2023/01/26 02:21:08;;;;;;;61.40;20.27;;;-2.50;99.90;;;;;;5077053;28;20544;-84
2023/01/26 02:23:57;;;;;;;61.17;19.75;;;-2.40;99.90;;;;;;5076857;28;20667;-84
2023/01/26 02:26:34;;;;;;;63.85;19.23;;;-2.40;99.90;;;;;;5076889;28;20028;-84
2023/01/26 02:29:02;;;;;;;73.25;20.27;;;-2.40;99.90;;;;;;5086333;28;20020;-84
2023/01/26 02:31:29;;;;;;;63.58;18.65;;;-2.40;99.90;;;;;;5093080;28;20540;-84
2023/01/26 02:33:56;;;;;;;65.20;20.75;;;-2.40;99.90;;;;;;5093487;28;20024;-84
2023/01/26 02:36:24;;;;;;;72.65;21.83;;;-2.40;99.90;;;;;;5076234;28;20065;-84
2023/01/26 02:39:15;;;;;;;79.18;20.58;;;-2.40;99.90;;;;;;5076583;28;20438;-84
2023/01/26 02:44:28;;;;;;;57.25;18.73;;;-2.30;99.90;;;;;;5093276;28;20113;-84
2023/01/26 02:46:53;;;;;;;66.78;19.65;;;-2.30;99.90;;;;;;5075794;28;20102;-84
2023/01/26 02:52:04;;;;;;;56.42;17.77;;;-2.40;99.90;;;;;;5093907;28;20027;-84
2023/01/26 02:57:15;;;;;;;60.13;18.27;;;-2.40;99.90;;;;;;5093333;28;20055;-84
2023/01/26 02:59:43;;;;;;;53.42;17.40;;;-2.40;99.90;;;;;;5076327;28;20024;-84
2023/01/26 03:02:09;;;;;;;55.10;17.30;;;-2.40;99.90;;;;;;5076018;28;20028;-84
2023/01/26 03:04:35;;;;;;;51.10;16.88;;;-2.40;99.90;;;;;;5076248;28;20039;-84
2023/01/26 03:07:01;;;;;;;57.80;18.95;;;-2.40;99.90;;;;;;5076494;28;20680;-84
2023/01/26 03:09:27;;;;;;;60.35;18.30;;;-2.40;99.90;;;;;;5076588;28;20487;-84
2023/01/26 03:11:53;;;;;;;53.90;18.70;;;-2.40;99.90;;;;;;5092909;28;20105;-84
2023/01/26 03:14:18;;;;;;;65.32;19.60;;;-2.30;99.90;;;;;;5075999;28;20122;-84
2023/01/26 03:16:44;;;;;;;75.47;22.10;;;-2.30;99.90;;;;;;5075936;28;20036;-84
2023/01/26 03:27:48;;;;;;;71.13;21.25;;;-2.40;99.90;;;;;;5092364;28;20030;-84
2023/01/26 03:30:16;;;;;;;78.63;22.17;;;-2.40;99.90;;;;;;5070468;28;20029;-84
2023/01/26 03:32:44;;;;;;;178.20;25.90;;;-2.40;99.90;;;;;;5089621;28;20020;-84
2023/01/26 03:35:21;;;;;;;83.70;23.58;;;-2.50;99.90;;;;;;5076134;28;20393;-84
2023/01/26 03:37:53;;;;;;;70.40;22.30;;;-2.50;99.90;;;;;;5075612;28;20035;-84
2023/01/26 03:56:50;;;;;;;84.45;21.67;;;-2.50;99.90;;;;;;5092085;28;20111;-84
2023/01/26 03:59:19;;;;;;;69.72;19.77;;;-2.50;99.90;;;;;;5074926;28;20619;-84
2023/01/26 04:10:05;;;;;;;69.85;19.02;;;-2.50;99.90;;;;;;5092221;28;20072;-84
2023/01/26 04:12:31;;;;;;;65.30;20.60;;;-2.60;99.90;;;;;;5067544;28;20392;-84
2023/01/26 04:23:34;;;;;;;87.78;21.90;;;-2.50;99.90;;;;;;5091598;28;20123;-84
2023/01/26 04:25:59;;;;;;;83.07;22.67;;;-2.60;99.90;;;;;;5074840;28;20066;-84
2023/01/26 04:28:25;;;;;;;87.85;22.02;;;-2.60;99.90;;;;;;5074618;28;20333;-84
2023/01/26 04:30:51;;;;;;;80.82;21.73;;;-2.60;99.90;;;;;;5091102;28;20456;-84
2023/01/26 04:33:17;;;;;;;85.00;22.80;;;-2.60;99.90;;;;;;5091519;28;20028;-83
2023/01/26 04:35:43;;;;;;;80.82;21.17;;;-2.50;99.90;;;;;;5091889;28;20059;-84
2023/01/26 04:38:09;;;;;;;118.18;24.48;;;-2.50;99.90;;;;;;5074934;28;20024;-84
2023/01/26 04:40:35;;;;;;;101.38;24.83;;;-2.50;99.90;;;;;;5075164;28;20047;-84
2023/01/26 04:43:01;;;;;;;97.32;24.25;;;-2.50;99.90;;;;;;5074786;28;20108;-84
2023/01/26 04:45:27;;;;;;;94.43;25.85;;;-2.50;99.90;;;;;;5074576;28;20028;-84
2023/01/26 04:47:53;;;;;;;97.95;24.70;;;-2.50;99.90;;;;;;5074014;28;20016;-84
2023/01/26 04:50:19;;;;;;;97.05;26.33;;;-2.50;99.90;;;;;;5091211;28;20028;-84
2023/01/26 04:52:45;;;;;;;112.10;27.08;;;-2.40;99.90;;;;;;5074778;28;20032;-84
2023/01/26 04:55:14;;;;;;;181.30;27.10;;;-2.40;99.90;;;;;;5074453;28;20020;-84
2023/01/26 04:57:41;;;;;;;170.98;28.15;;;-2.40;99.90;;;;;;5071915;28;20020;-84
2023/01/26 05:00:10;;;;;;;123.05;26.58;;;-2.40;99.90;;;;;;5073945;28;20046;-84
2023/01/26 05:02:36;;;;;;;135.25;26.20;;;-2.40;99.90;;;;;;5090352;28;20421;-84
2023/01/26 05:05:02;;;;;;;106.70;24.25;;;-2.40;99.90;;;;;;5090203;28;20044;-84
2023/01/26 05:07:28;;;;;;;85.10;24.45;;;-2.40;99.90;;;;;;5073514;28;20073;-84
2023/01/26 05:09:54;;;;;;;90.75;25.15;;;-2.40;99.90;;;;;;5074252;28;20657;-84
2023/01/26 05:12:41;;;;;;;117.55;27.15;;;-2.30;99.90;;;;;;5091559;28;20032;-84
2023/01/26 05:15:29;;;;;;;105.65;27.05;;;-2.30;99.90;;;;;;5096301;28;20426;-84
2023/01/26 05:18:15;;;;;;;104.90;28.40;;;-2.30;99.90;;;;;;5079468;28;20695;-84
2023/01/26 05:21:14;;;;;;;106.90;25.92;;;-2.20;99.90;;;;;;5079757;28;20031;-84
2023/01/26 05:23:44;;;;;;;114.85;27.83;;;-2.20;99.90;;;;;;5078766;28;20028;-84
2023/01/26 05:26:21;;;;;;;127.88;26.67;;;-2.20;99.90;;;;;;5079698;28;20027;-84
2023/01/26 05:29:01;;;;;;;171.90;28.60;;;-2.20;99.90;;;;;;5080056;28;20021;-84
2023/01/26 05:31:26;;;;;;;137.10;28.77;;;-2.20;99.90;;;;;;5078588;28;20149;-84
2023/01/26 05:33:53;;;;;;;165.65;27.48;;;-2.20;99.90;;;;;;5078061;28;20031;-84
2023/01/26 05:36:21;;;;;;;118.90;27.35;;;-2.20;99.90;;;;;;5094273;28;20032;-84
2023/01/26 05:38:47;;;;;;;100.22;26.02;;;-2.20;99.90;;;;;;5077741;28;20054;-84
2023/01/26 05:41:14;;;;;;;105.50;25.83;;;-2.20;99.90;;;;;;5077863;28;20418;-84
2023/01/26 05:43:56;;;;;;;;;;;-2.20;99.90;;;;;;5080203;28;20059;-84
2023/01/26 05:46:38;;;;;;;109.82;28.55;;;-2.20;99.90;;;;;;5075957;28;19951;-84
2023/01/26 05:49:04;;;;;;;114.07;28.73;;;-2.20;99.90;;;;;;5077437;28;20520;-84
2023/01/26 05:51:30;;;;;;;111.30;28.75;;;-2.10;99.90;;;;;;5077322;28;20114;-84
2023/01/26 05:53:55;;;;;;;120.57;27.00;;;-2.10;99.90;;;;;;5093289;28;20453;-84
2023/01/26 05:56:27;;;;;;;119.32;26.85;;;-2.20;99.90;;;;;;5077211;28;20032;-84
2023/01/26 05:58:58;;;;;;;116.50;28.63;;;-2.20;99.90;;;;;;5078247;28;20032;-84
2023/01/26 06:01:23;;;;;;;119.15;26.85;;;-2.10;99.90;;;;;;5077229;28;20031;-84
2023/01/26 06:03:56;;;;;;;101.65;24.70;;;-2.00;99.90;;;;;;5077592;28;20036;-84
2023/01/26 06:06:22;;;;;;;102.55;24.40;;;-2.00;99.90;;;;;;5077482;28;20542;-84
2023/01/26 06:08:59;;;;;;;96.10;25.27;;;-2.00;99.90;;;;;;5079010;28;20016;-84
2023/01/26 06:11:33;;;;;;;98.93;23.15;;;-2.00;99.90;;;;;;5094600;28;20036;-84
2023/01/26 06:14:11;;;;;;;105.43;23.88;;;-2.10;99.90;;;;;;5078880;28;20028;-84
2023/01/26 06:16:37;;;;;;;89.32;22.48;;;-2.10;99.90;;;;;;5094294;28;20051;-84
2023/01/26 06:19:03;;;;;;;91.63;22.90;;;-2.20;99.90;;;;;;5076981;28;20029;-84
2023/01/26 06:21:32;;;;;;;100.40;24.77;;;-2.10;99.90;;;;;;5076509;28;20035;-84
2023/01/26 06:23:58;;;;;;;98.07;24.40;;;-2.10;99.90;;;;;;5076873;28;20028;-84
2023/01/26 06:26:24;;;;;;;106.53;27.23;;;-2.10;99.90;;;;;;5077056;28;20016;-84
2023/01/26 06:28:51;;;;;;;99.20;25.13;;;-2.10;99.90;;;;;;5077089;28;20024;-85
2023/01/26 06:31:19;;;;;;;75.05;21.83;;;-2.20;99.90;;;;;;5093571;28;20154;-84
2023/01/26 06:33:46;;;;;;;88.47;22.58;;;-2.20;99.90;;;;;;5077154;28;20035;-84
2023/01/26 06:36:13;;;;;;;85.07;22.70;;;-2.20;99.90;;;;;;5093389;28;20072;-84
2023/01/26 06:39:06;;;;;;;80.28;21.95;;;-2.10;99.90;;;;;;5076266;28;20589;-84
2023/01/26 06:41:32;;;;;;;68.18;21.27;;;-2.10;99.90;;;;;;5092942;28;20032;-84
2023/01/26 06:44:07;;;;;;;77.72;23.08;;;-2.20;99.90;;;;;;5092954;28;20139;-84
2023/01/26 06:46:33;;;;;;;85.15;24.75;;;-2.10;99.90;;;;;;5067909;28;20484;-84
2023/01/26 06:49:01;;;;;;;68.28;21.95;;;-2.10;99.90;;;;;;5093009;28;20043;-84
2023/01/26 06:51:46;;;;;;;84.15;22.88;;;-2.10;99.90;;;;;;5076488;28;20119;-84
2023/01/26 06:54:14;;;;;;;77.22;21.75;;;-2.10;99.90;;;;;;5076641;28;20024;-84
2023/01/26 06:56:58;;;;;;;74.60;21.30;;;-2.10;99.90;;;;;;5093776;28;20081;-84
2023/01/26 06:59:50;;;;;;;86.13;21.73;;;-2.20;99.90;;;;;;5075072;28;20044;-84
2023/01/26 07:02:43;;;;;;;79.43;22.13;;;-2.20;99.90;;;;;;5093091;28;20056;-84
2023/01/26 07:05:15;;;;;;;84.20;22.05;;;-2.20;99.90;;;;;;5076290;28;20540;-84
2023/01/26 07:07:41;;;;;;;74.78;23.23;;;-2.20;99.90;;;;;;5093217;28;20111;-86
2023/01/26 07:10:07;;;;;;;71.72;22.08;;;-2.20;99.90;;;;;;5089483;28;20728;-85
2023/01/26 07:12:41;;;;;;;79.60;21.05;;;-2.20;99.90;;;;;;5076639;28;20812;-86
2023/01/26 07:15:08;;;;;;;72.03;21.23;;;-2.30;99.90;;;;;;5076024;28;20510;-85
2023/01/26 07:17:34;;;;;;;82.43;21.60;;;-2.20;99.90;;;;;;5093437;28;20030;-85
2023/01/26 07:19:59;;;;;;;63.70;20.58;;;-2.20;99.90;;;;;;5092858;28;20032;-85
2023/01/26 07:22:25;;;;;;;69.43;20.88;;;-2.20;99.90;;;;;;5093134;28;20062;-86
2023/01/26 07:24:51;;;;;;;77.68;21.90;;;-2.20;99.90;;;;;;5092360;28;20039;-85
2023/01/26 07:27:16;;;;;;;64.55;18.75;;;-2.20;99.90;;;;;;5075051;28;20036;-85
2023/01/26 07:29:42;;;;;;;54.90;17.23;;;-2.20;99.90;;;;;;5074996;28;20472;-85
2023/01/26 07:32:08;;;;;;;64.25;19.10;;;-2.20;99.90;;;;;;5092657;28;20664;-85
2023/01/26 07:34:33;;;;;;;64.53;19.67;;;-2.20;99.90;;;;;;5091358;28;20036;-85
2023/01/26 07:36:59;;;;;;;75.93;20.15;;;-2.10;99.90;;;;;;5092782;28;20076;-86
2023/01/26 07:39:25;;;;;;;68.00;20.98;;;-2.00;99.90;;;;;;5075435;28;20039;-86
2023/01/26 07:41:51;;;;;;;56.40;19.33;;;-2.00;99.90;;;;;;5075445;28;20390;-86
2023/01/26 07:44:52;;;;;;;47.65;18.00;;;-2.00;99.90;;;;;;5019271;28;20022;-85
2023/01/26 07:47:18;;;;;;;50.00;16.65;;;-1.90;99.90;;;;;;5059067;28;20096;-85
2023/01/26 07:49:45;;;;;;;66.60;17.33;;;-1.90;99.90;;;;;;5075536;28;20726;-85
2023/01/26 07:52:11;;;;;;;69.50;18.50;;;-1.90;99.90;;;;;;5075213;28;20024;-85
2023/01/26 07:54:37;;;;;;;58.15;19.65;;;-1.90;99.90;;;;;;5091857;28;20027;-86
2023/01/26 07:57:05;;;;;;;69.53;20.88;;;-1.80;99.90;;;;;;5076095;28;20078;-86
2023/01/26 07:59:40;;;;;;;56.72;17.77;;;-1.80;99.90;;;;;;5092431;28;20107;-85
2023/01/26 08:02:09;;;;;;;46.83;15.30;;;-1.80;99.90;;;;;;5093149;28;20395;-86
2023/01/26 08:04:34;;;;;;;53.63;16.50;;;-2.00;99.90;;;;;;5075743;28;20039;-85
2023/01/26 08:07:00;;;;;;;44.47;15.63;;;-2.00;99.90;;;;;;5075269;28;20115;-86
2023/01/26 08:09:26;;;;;;;54.17;18.23;;;-1.90;99.90;;;;;;5075007;28;20035;-86
2023/01/26 08:11:51;;;;;;;45.92;16.05;;;-1.80;99.90;;;;;;5075062;28;20436;-85
2023/01/26 08:14:17;;;;;;;111.28;42.17;;;-1.80;99.90;;;;;;5091844;28;20383;-86
2023/01/26 08:16:44;;;;;;;45.80;16.48;;;-1.70;99.90;;;;;;5074935;28;20028;-86
2023/01/26 08:19:09;;;;;;;51.97;19.88;;;-1.80;99.90;;;;;;5092012;28;20027;-85
2023/01/26 08:21:35;;;;;;;58.00;20.90;;;-1.70;99.90;;;;;;5091445;28;20826;-85
2023/01/26 08:24:02;;;;;;;50.10;17.65;;;-1.60;99.90;;;;;;5074623;28;20036;-86
2023/01/26 08:26:28;;;;;;;46.78;15.85;;;-1.60;99.90;;;;;;5074614;28;20403;-85
2023/01/26 08:28:54;;;;;;;40.67;14.57;;;-1.60;99.90;;;;;;5092549;28;20052;-85
2023/01/26 08:31:20;;;;;;;43.40;16.80;;;-1.50;99.90;;;;;;5073973;28;20078;-86
2023/01/26 08:33:49;;;;;;;42.25;17.05;;;-1.50;99.90;;;;;;5074223;28;20031;-86
2023/01/26 08:36:15;;;;;;;35.72;14.43;;;-1.40;99.90;;;;;;5074616;28;20119;-86
2023/01/26 08:38:41;;;;;;;51.22;17.05;;;-1.40;99.90;;;;;;5074949;28;20118;-86
2023/01/26 08:41:08;;;;;;;49.13;19.48;;;-1.30;99.90;;;;;;5074811;28;20032;-86
2023/01/26 08:43:34;;;;;;;43.28;15.95;;;-1.30;99.90;;;;;;5074213;28;20040;-86
2023/01/26 08:46:00;;;;;;;41.60;16.73;;;-1.20;99.90;;;;;;5074362;28;20062;-86
2023/01/26 08:48:26;;;;;;;38.20;15.50;;;-1.20;99.90;;;;;;5074912;28;20445;-86
2023/01/26 08:50:57;;;;;;;46.25;16.48;;;-1.10;99.90;;;;;;5074708;28;20028;-86
2023/01/26 08:53:23;;;;;;;41.22;14.73;;;-1.10;99.90;;;;;;5091615;28;20095;-86
2023/01/26 08:55:49;;;;;;;43.88;14.85;;;-1.20;99.90;;;;;;5075032;28;20040;-85
2023/01/26 08:58:40;;;;;;;38.60;14.55;;;-1.30;99.90;;;;;;5075259;28;20028;-86
2023/01/26 09:01:14;;;;;;;34.28;12.90;;;-1.20;99.90;;;;;;5091018;28;20028;-86
2023/01/26 09:03:40;;;;;;;36.72;14.73;;;-1.10;99.90;;;;;;5074147;28;20094;-86
2023/01/26 09:06:08;;;;;;;53.47;28.33;;;-1.10;99.90;;;;;;5091112;28;20027;-86
2023/01/26 09:08:34;;;;;;;38.05;15.77;;;-1.00;99.90;;;;;;5091166;28;20121;-86
2023/01/26 09:11:00;;;;;;;38.42;14.82;;;-1.00;99.90;;;;;;5091561;28;20024;-86
2023/01/26 09:13:26;;;;;;;43.75;15.85;;;-1.00;99.90;;;;;;5092906;28;20100;-86
2023/01/26 09:15:51;;;;;;;33.70;13.63;;;-1.00;99.90;;;;;;5075093;28;20042;-86
2023/01/26 09:18:17;;;;;;;45.00;20.15;;;-1.00;99.90;;;;;;5091069;28;20034;-86
2023/01/26 09:20:43;;;;;;;51.55;24.50;;;-1.10;99.90;;;;;;5090987;28;20028;-86
2023/01/26 09:23:11;;;;;;;39.78;15.75;;;-1.10;99.90;;;;;;5073908;28;20036;-86
2023/01/26 09:25:37;;;;;;;33.00;13.25;;;-1.20;99.90;;;;;;5074459;28;20082;-86
2023/01/26 09:28:04;;;;;;;39.22;15.45;;;-1.10;99.90;;;;;;5074244;28;20032;-86
2023/01/26 09:30:31;;;;;;;42.08;15.05;;;-1.00;99.90;;;;;;5091000;28;20107;-86
2023/01/26 09:33:03;;;;;;;36.83;13.30;;;-0.80;99.90;;;;;;5074273;28;20123;-86
2023/01/26 09:35:29;;;;;;;34.08;13.48;;;-0.80;99.90;;;;;;5074455;28;20028;-86
2023/01/26 09:37:55;;;;;;;32.38;12.63;;;-0.80;99.90;;;;;;5091289;28;20024;-86
2023/01/26 09:40:35;;;;;;;46.33;16.60;;;-0.80;99.90;;;;;;5091254;28;20357;-86
2023/01/26 09:43:35;;;;;;;31.17;12.77;;;-0.80;99.90;;;;;;5090565;28;20032;-86
2023/01/26 09:46:14;;;;;;;34.45;14.02;;;-0.80;99.90;;;;;;5073926;28;20373;-86
2023/01/26 09:48:57;;;;;;;32.55;12.50;;;-0.90;99.90;;;;;;5074071;28;20097;-86
2023/01/26 09:51:37;;;;;;;37.33;13.68;;;-0.90;99.90;;;;;;5062780;28;20104;-86
2023/01/26 09:54:35;;;;;;;42.75;15.48;;;-1.00;99.90;;;;;;5121336;28;20028;-87
2023/01/26 09:57:09;;;;;;;37.75;14.38;;;-1.10;99.90;;;;;;5088820;28;20079;-86
2023/01/26 09:59:51;;;;;;;47.80;17.52;;;-1.10;99.90;;;;;;5071061;28;20136;-86
2023/01/26 10:02:43;;;;;;;32.67;11.82;;;-1.20;99.90;;;;;;5094001;28;20593;-86
2023/01/26 10:05:45;;;;;;;39.10;13.52;;;-1.10;99.90;;;;;;5077391;28;20044;-86
2023/01/26 10:08:13;;;;;;;36.47;14.35;;;-1.10;99.90;;;;;;5063125;28;20497;-86
2023/01/26 10:11:30;;;;;;;35.33;13.05;;;-1.10;99.90;;;;;;5077476;28;20035;-86
2023/01/26 10:14:32;;;;;;;36.45;12.70;;;-1.20;99.90;;;;;;5056140;28;20411;-86
2023/01/26 10:16:59;;;;;;;34.95;14.57;;;-1.20;99.90;;;;;;5107873;28;20028;-85
2023/01/26 10:19:39;;;;;;;30.38;13.55;;;-1.10;99.90;;;;;;5095270;28;20031;-86
2023/01/26 10:22:16;;;;;;;28.40;11.85;;;-1.10;99.90;;;;;;5076589;28;20043;-85
2023/01/26 10:24:47;;;;;;;39.35;13.30;;;-1.10;99.90;;;;;;5076080;28;20040;-85
2023/01/26 10:27:13;;;;;;;32.95;12.70;;;-1.10;99.90;;;;;;5093415;28;20043;-86
2023/01/26 10:29:39;;;;;;;26.77;12.32;;;-1.10;99.90;;;;;;5093402;28;20487;-86
2023/01/26 10:32:05;;;;;;;28.67;12.07;;;-1.10;99.90;;;;;;5077258;28;20050;-85
2023/01/26 10:34:31;;;;;;;33.20;12.55;;;-1.10;99.90;;;;;;5077345;28;20046;-86
2023/01/26 10:37:14;;;;;;;28.60;12.32;;;-1.00;99.90;;;;;;5077182;28;20047;-86
2023/01/26 10:40:03;;;;;;;23.80;11.30;;;-1.00;99.90;;;;;;5093522;28;20453;-86
2023/01/26 10:42:31;;;;;;;25.60;10.70;;;-0.90;99.90;;;;;;5092966;28;20036;-86
2023/01/26 10:45:00;;;;;;;26.50;9.68;;;-1.20;99.90;;;;;;5089583;28;20035;-85
2023/01/26 10:48:10;;;;;;;37.08;13.85;;;-1.30;99.90;;;;;;5076662;28;20039;-85
2023/01/26 10:50:35;;;;;;;28.75;13.20;;;-1.40;99.90;;;;;;5076633;28;20040;-85
2023/01/26 10:53:03;;;;;;;29.83;10.95;;;-1.30;99.90;;;;;;5093429;28;20383;-86
2023/01/26 10:55:31;;;;;;;24.23;10.10;;;-1.20;99.90;;;;;;5093465;28;20078;-85
2023/01/26 10:57:58;;;;;;;26.45;11.15;;;-1.10;99.90;;;;;;5094868;28;20024;-85
2023/01/26 11:00:32;;;;;;;23.30;10.38;;;-1.20;99.90;;;;;;5076323;28;20064;-86
2023/01/26 11:03:13;;;;;;;29.08;12.27;;;-1.20;99.90;;;;;;5072554;28;20391;-85
2023/01/26 11:05:39;;;;;;;23.73;10.82;;;-1.10;99.90;;;;;;5093610;28;20062;-85
2023/01/26 11:08:35;;;;;;;26.60;11.25;;;-1.10;99.90;;;;;;5076726;28;20021;-85
2023/01/26 11:11:02;;;;;;;26.63;11.15;;;-1.00;99.90;;;;;;5073069;28;20101;-86
2023/01/26 11:13:28;;;;;;;27.45;12.88;;;-1.00;99.90;;;;;;5092445;28;20036;-86
2023/01/26 11:16:24;;;;;;;22.40;10.20;;;-0.90;99.90;;;;;;5093065;28;20035;-85
2023/01/26 11:18:53;;;;;;;25.95;10.68;;;-1.00;99.90;;;;;;5094620;28;20156;-85
2023/01/26 11:21:33;;;;;;;24.00;10.77;;;-1.10;99.90;;;;;;5076205;28;20066;-85
2023/01/26 11:24:03;;;;;;;24.10;10.57;;;-1.00;99.90;;;;;;5072094;28;20162;-86
2023/01/26 11:26:41;;;;;;;24.92;11.05;;;-1.10;99.90;;;;;;5075764;28;20028;-84
2023/01/26 11:29:36;;;;;;;22.10;8.95;;;-1.10;99.90;;;;;;5075222;28;20047;-85
2023/01/26 11:32:21;;;;;;;21.77;10.63;;;-1.20;99.90;;;;;;5072812;28;20025;-85
2023/01/26 11:35:05;;;;;;;28.25;11.10;;;-1.00;99.90;;;;;;5092486;28;20083;-85
2023/01/26 11:37:46;;;;;;;28.02;12.35;;;-0.90;99.90;;;;;;5075899;28;20036;-85
2023/01/26 11:40:17;;;;;;;22.02;10.73;;;-0.60;99.90;;;;;;5073177;28;20025;-86
2023/01/26 11:42:54;;;;;;;20.00;9.73;;;-0.50;99.90;;;;;;5075371;28;20491;-86
2023/01/26 11:45:42;;;;;;;27.55;12.10;;;-0.70;99.90;;;;;;5075559;28;20036;-86
2023/01/26 11:48:14;;;;;;;20.85;9.57;;;-0.70;99.90;;;;;;5092461;28;20039;-85
2023/01/26 11:50:52;;;;;;;18.58;9.50;;;-0.70;99.90;;;;;;5075967;28;20024;-86
2023/01/26 11:53:19;;;;;;;25.60;12.45;;;-0.80;99.90;;;;;;5091503;28;20028;-86
2023/01/26 11:56:25;;;;;;;25.38;12.13;;;-0.70;99.90;;;;;;5094074;28;20040;-86
2023/01/26 11:59:04;;;;;;;16.75;7.93;;;-0.60;99.90;;;;;;5092572;28;20394;-86
2023/01/26 12:01:32;;;;;;;22.30;10.50;;;-0.60;99.90;;;;;;5075482;28;20160;-85
2023/01/26 12:03:58;;;;;;;30.75;13.57;;;-0.50;99.90;;;;;;5075255;28;20028;-86
2023/01/26 12:06:54;;;;;;;20.77;9.55;;;-0.40;99.90;;;;;;5075871;28;20117;-86
2023/01/26 12:09:35;;;;;;;22.48;11.25;;;-0.40;99.90;;;;;;5105769;27;20037;-85
2023/01/26 12:12:09;;;;;;;25.30;11.50;;;-0.60;99.90;;;;;;5091940;28;20116;-85
2023/01/26 12:14:45;;;;;;;18.60;9.57;;;-0.50;99.90;;;;;;5074810;28;20040;-85
2023/01/26 12:17:29;;;;;;;19.60;9.45;;;-0.60;99.90;;;;;;5074098;28;20031;-86
2023/01/26 12:20:16;;;;;;;25.13;11.32;;;-0.60;99.90;;;;;;5073868;28;20048;-85
2023/01/26 12:22:48;;;;;;;24.90;10.50;;;-0.70;99.90;;;;;;5093042;28;20036;-86
2023/01/26 12:25:35;;;;;;;21.70;10.40;;;-0.70;99.90;;;;;;5091529;28;20173;-85
2023/01/26 12:28:05;;;;;;;30.27;13.35;;;-0.90;99.90;;;;;;5075200;28;20032;-86
2023/01/26 12:30:44;;;;;;;17.13;8.88;;;-0.90;99.90;;;;;;5074570;28;20130;-86
2023/01/26 12:33:10;;;;;;;19.10;9.27;;;-1.00;99.90;;;;;;5074349;28;20032;-86
2023/01/26 12:35:54;;;;;;;23.67;10.20;;;-1.00;99.90;;;;;;5074731;28;20031;-85
2023/01/26 12:38:39;;;;;;;15.80;7.60;;;-1.00;99.90;;;;;;5091516;28;20028;-85
2023/01/26 12:41:08;;;;;;;17.58;9.20;;;-0.90;99.90;;;;;;5074974;28;20020;-86
2023/01/26 12:43:34;;;;;;;13.52;6.97;;;-0.80;99.90;;;;;;5091813;28;20395;-85
2023/01/26 12:46:03;;;;;;;13.00;6.88;;;-0.80;99.90;;;;;;5075300;28;20016;-85
2023/01/26 12:48:53;;;;;;;15.50;7.15;;;-1.10;99.90;;;;;;5091794;28;20020;-85
2023/01/26 12:51:29;;;;;;;17.27;7.95;;;-1.20;99.90;;;;;;5071440;28;20062;-86
2023/01/26 12:54:07;;;;;;;14.68;6.97;;;-1.10;99.90;;;;;;5074805;28;20037;-85
2023/01/26 12:56:39;;;;;;;18.13;8.70;;;-1.10;99.90;;;;;;5075126;28;20047;-85
2023/01/26 12:59:32;;;;;;;23.95;10.45;;;-1.20;99.90;;;;;;5091999;28;20471;-86
2023/01/26 13:02:07;;;;;;;35.63;14.35;;;-1.10;99.90;;;;;;5103503;28;20035;-85
2023/01/26 13:04:33;;;;;;;51.78;20.65;;;-1.20;99.90;;;;;;5082532;28;20066;-86
2023/01/26 13:07:23;;;;;;;30.45;12.73;;;-1.20;99.90;;;;;;5091049;28;20048;-85
2023/01/26 13:10:08;;;;;;;24.30;12.18;;;-1.30;99.90;;;;;;5073816;28;20024;-86
2023/01/26 13:12:57;;;;;;;30.45;11.40;;;-1.30;99.90;;;;;;5091241;28;20028;-85
2023/01/26 13:15:28;;;;;;;18.63;9.43;;;-1.40;99.90;;;;;;5091225;28;20107;-85
2023/01/26 13:18:02;;;;;;;18.33;8.65;;;-1.40;99.90;;;;;;5074880;28;20020;-85
2023/01/26 13:20:46;;;;;;;17.17;8.95;;;-1.30;99.90;;;;;;5091026;28;20035;-86
2023/01/26 13:23:42;;;;;;;11.38;6.10;;;-1.20;99.90;;;;;;5074013;28;20127;-85
2023/01/26 13:26:47;;;;;;;14.57;6.28;;;-1.20;99.90;;;;;;5072691;28;20057;-86
2023/01/26 13:29:27;;;;;;;12.93;5.95;;;-1.20;99.90;;;;;;5088398;28;20062;-85
2023/01/26 13:31:55;;;;;;;97.55;27.83;;;-1.20;99.90;;;;;;5093004;28;20020;-85
2023/01/26 13:34:27;;;;;;;82.68;26.92;;;-1.30;99.90;;;;;;5078535;28;20548;-85
2023/01/26 13:36:59;;;;;;;16.70;7.50;;;-1.40;99.90;;;;;;5072768;28;20549;-86
2023/01/26 13:39:34;;;;;;;16.23;7.55;;;-1.50;99.90;;;;;;5078192;28;20035;-85
2023/01/26 13:42:02;;;;;;;10.27;5.07;;;-1.40;99.90;;;;;;5078410;28;20028;-85